createdAt,value
2024-04-12T05:52:08.426Z,13.60
2024-04-12T05:54:46.374Z,15.10
2024-04-12T05:57:14.583Z,15.10
2024-04-12T05:59:46.268Z,15.10
2024-04-12T06:02:18.321Z,15.00
2024-04-12T06:04:49.214Z,14.80
2024-04-12T06:07:18.116Z,14.70
2024-04-12T06:09:51.017Z,14.60
2024-04-12T06:12:18.666Z,14.40
2024-04-12T06:14:49.590Z,14.30
2024-04-12T06:17:24.163Z,13.90
2024-04-12T06:19:59.569Z,13.60
2024-04-12T06:28:15.933Z,13.20
2024-04-12T06:30:49.104Z,13.00
2024-04-12T06:33:21.493Z,13.10
2024-04-12T06:35:54.273Z,13.10
2024-04-12T06:38:23.771Z,13.20
2024-04-12T06:40:58.472Z,13.20
2024-04-12T06:43:27.847Z,13.10
2024-04-12T06:46:01.884Z,13.20
2024-04-12T06:48:32.880Z,13.20
2024-04-12T06:51:07.073Z,13.20
2024-04-12T06:53:35.082Z,13.30
2024-04-12T06:56:14.292Z,13.30
2024-04-12T06:58:42.862Z,13.30
2024-04-12T07:01:15.549Z,13.30
2024-04-12T07:03:48.898Z,13.20
2024-04-12T07:06:22.465Z,13.20
2024-04-12T07:08:51.959Z,13.30
2024-04-12T07:11:23.668Z,13.40
2024-04-12T07:13:52.053Z,13.40
2024-04-12T07:16:22.932Z,13.40
2024-04-12T07:19:24.477Z,13.50
2024-04-12T07:24:51.731Z,13.70
2024-04-12T07:27:23.936Z,13.80
2024-04-12T07:29:52.248Z,13.90
2024-04-12T07:32:23.739Z,14.00
2024-04-12T07:34:53.742Z,14.10
2024-04-12T07:37:33.422Z,14.10
2024-04-12T07:40:19.911Z,14.20
2024-04-12T07:42:53.486Z,14.20
2024-04-12T07:45:24.633Z,14.30
2024-04-12T07:48:12.950Z,14.40
2024-04-12T07:50:42.990Z,14.50
2024-04-12T07:53:22.923Z,14.50
2024-04-12T08:14:23.884Z,14.60
2024-04-12T08:16:55.859Z,15.10
2024-04-12T08:19:40.019Z,15.20
2024-04-12T08:22:19.232Z,15.30
2024-04-12T08:24:53.332Z,15.40
2024-04-12T08:27:25.410Z,15.40
2024-04-12T08:29:56.845Z,15.50
2024-04-12T08:32:29.645Z,15.60
2024-04-12T08:35:00.937Z,15.60
2024-04-12T16:27:35.077Z,15.70
2024-04-12T16:30:08.506Z,19.10
2024-04-12T16:32:35.759Z,18.90
2024-04-12T16:35:06.346Z,18.90
2024-04-12T16:37:33.567Z,18.90
2024-04-12T16:40:03.534Z,18.80
2024-04-12T16:42:33.350Z,18.70
2024-04-12T16:45:00.670Z,18.60
2024-04-12T16:47:33.380Z,18.60
2024-04-12T16:50:04.363Z,18.50
2024-04-12T16:52:36.466Z,18.50
2024-04-12T17:17:58.932Z,18.50
2024-04-12T17:20:27.221Z,17.90
2024-04-12T17:22:57.070Z,17.70
2024-04-12T17:25:24.658Z,17.70
2024-04-12T17:27:54.878Z,17.60
2024-04-12T17:30:22.230Z,17.50
2024-04-12T17:32:52.265Z,17.50
2024-04-12T17:35:22.111Z,17.50
2024-04-12T17:37:51.929Z,17.30
2024-04-12T17:40:21.217Z,17.10
2024-04-12T17:42:51.163Z,17.10
2024-04-12T17:45:19.736Z,17.00
2024-04-12T18:03:46.733Z,16.80
2024-04-12T18:06:16.910Z,15.70
2024-04-12T18:08:46.933Z,15.50
2024-04-12T18:11:16.969Z,15.30
2024-04-12T18:13:44.297Z,15.10
2024-04-12T18:21:42.405Z,14.90
2024-04-12T18:24:12.576Z,14.50
2024-04-12T18:26:42.673Z,14.40
2024-04-12T18:29:09.966Z,14.30
2024-04-12T18:31:40.511Z,14.20
2024-04-12T18:34:18.741Z,14.20
2024-04-12T18:37:09.246Z,14.00
2024-04-12T18:39:57.849Z,14.00
2024-04-12T18:42:43.682Z,13.90
2024-04-12T18:45:16.255Z,13.90
2024-04-12T18:47:48.055Z,13.80
2024-04-12T18:50:21.669Z,13.70
2024-04-12T18:52:53.077Z,13.70
2024-04-12T18:55:23.951Z,13.60
2024-04-12T18:57:54.010Z,13.60
2024-04-12T19:00:21.547Z,13.50
2024-04-12T19:02:51.652Z,13.50
2024-04-12T19:05:19.107Z,13.50
2024-04-12T19:07:51.331Z,13.50
2024-04-12T19:10:18.656Z,13.40
2024-04-12T19:12:51.145Z,13.40
2024-04-12T19:15:18.654Z,13.40
2024-04-12T19:17:49.107Z,13.40
2024-04-12T19:20:16.617Z,13.30
2024-04-12T19:22:48.023Z,13.30
2024-04-12T19:25:16.316Z,13.30
2024-04-12T19:27:46.475Z,13.30
2024-04-12T19:30:16.994Z,13.30
2024-04-12T19:32:46.971Z,13.30
2024-04-12T19:35:14.464Z,13.20
2024-04-12T19:37:48.855Z,13.20
2024-04-12T19:40:16.411Z,13.20
2024-04-12T19:42:46.253Z,13.20
2024-04-12T19:45:16.254Z,13.20
2024-04-12T19:47:46.153Z,13.20
2024-04-12T19:50:14.107Z,13.20
2024-04-12T19:52:51.007Z,13.10
2024-04-12T19:55:23.190Z,13.10
2024-04-12T19:57:52.972Z,13.10
2024-04-12T20:00:22.996Z,13.10
2024-04-12T20:02:52.915Z,13.10
2024-04-12T20:05:20.116Z,13.00
2024-04-12T20:07:50.696Z,13.00
2024-04-12T20:10:20.539Z,13.00
2024-04-12T20:12:50.308Z,12.90
2024-04-12T20:15:18.618Z,13.00
2024-04-12T20:17:51.289Z,13.00
2024-04-12T20:20:19.425Z,13.00
2024-04-12T20:22:51.446Z,13.00
2024-04-12T20:25:18.658Z,12.90
2024-04-12T20:27:49.168Z,12.80
2024-04-12T20:30:30.817Z,12.80
2024-04-12T20:33:10.257Z,12.80
2024-04-12T20:35:48.938Z,12.80
2024-04-12T20:38:18.736Z,12.70
2024-04-12T20:43:39.745Z,12.80
2024-04-12T20:46:07.071Z,12.70
2024-04-12T20:48:39.989Z,12.70
2024-04-12T20:51:08.134Z,12.70
2024-04-12T20:53:38.019Z,12.70
2024-04-12T20:56:05.996Z,12.70
2024-04-12T20:58:35.786Z,12.70
2024-04-12T21:01:04.632Z,12.60
2024-04-12T21:03:35.133Z,12.60
2024-04-12T21:06:06.728Z,12.70
2024-04-12T21:08:36.546Z,12.70
2024-04-12T21:11:14.986Z,12.70
2024-04-12T21:13:48.747Z,12.60
2024-04-12T21:16:16.020Z,12.70
2024-04-12T21:18:46.050Z,12.70
2024-04-12T21:21:17.508Z,12.70
2024-04-12T21:23:47.550Z,12.70
2024-04-12T21:26:14.864Z,12.70
2024-04-12T21:28:44.637Z,12.70
2024-04-12T21:31:11.828Z,12.70
2024-04-12T21:33:41.686Z,12.70
2024-04-12T21:36:10.057Z,12.70
2024-04-12T21:38:46.374Z,12.70
2024-04-12T21:41:16.817Z,12.60
2024-04-12T21:43:48.953Z,12.70
2024-04-12T21:46:19.030Z,12.70
2024-04-12T21:48:51.293Z,12.60
2024-04-12T21:51:21.585Z,12.60
2024-04-12T21:53:54.416Z,12.60
2024-04-12T21:56:22.736Z,12.60
2024-04-12T21:58:53.002Z,12.50
2024-04-12T22:04:15.004Z,12.50
2024-04-12T22:06:42.285Z,12.50
2024-04-12T22:09:14.708Z,12.40
2024-04-12T22:11:41.948Z,12.50
2024-04-12T22:14:11.738Z,12.40
2024-04-12T22:16:39.042Z,12.40
2024-04-12T22:19:08.924Z,12.40
2024-04-12T22:21:36.370Z,12.40
2024-04-12T22:24:06.519Z,12.40
2024-04-12T22:26:36.514Z,12.40
2024-04-12T22:29:06.349Z,12.40
2024-04-12T22:31:33.770Z,12.40
2024-04-12T22:34:03.713Z,12.50
2024-04-12T22:36:31.079Z,12.50
2024-04-12T22:39:01.063Z,12.50
2024-04-12T22:41:28.315Z,12.40
2024-04-12T22:44:00.830Z,12.40
2024-04-12T22:46:29.715Z,12.40
2024-04-12T22:48:59.677Z,12.40
2024-04-12T22:51:27.566Z,12.40
2024-04-12T22:53:58.719Z,12.40
2024-04-12T22:56:26.707Z,12.40
2024-04-12T22:59:00.473Z,12.40
2024-04-12T23:01:28.610Z,12.40
2024-04-12T23:03:58.745Z,12.40
2024-04-12T23:06:26.096Z,12.40
2024-04-12T23:08:55.973Z,12.40
2024-04-12T23:11:23.329Z,12.40
2024-04-12T23:13:53.160Z,12.40
2024-04-12T23:16:23.043Z,12.40
2024-04-12T23:18:55.643Z,12.40
2024-04-12T23:21:22.984Z,12.40
2024-04-12T23:23:52.890Z,12.40
2024-04-12T23:26:20.115Z,12.40
2024-04-12T23:28:50.537Z,12.40
2024-04-12T23:31:17.749Z,12.40
2024-04-12T23:33:50.221Z,12.40
2024-04-12T23:36:17.430Z,12.40
2024-04-12T23:38:47.307Z,12.50
2024-04-12T23:41:14.595Z,12.50
2024-04-12T23:43:45.516Z,12.50
2024-04-12T23:46:16.124Z,12.50
2024-04-12T23:48:49.895Z,12.50
2024-04-12T23:51:17.140Z,12.50
2024-04-12T23:53:46.916Z,12.50
2024-04-12T23:56:14.330Z,12.50
2024-04-12T23:58:44.200Z,12.50
